Buckley, Illinois
Current Conditions -  °F | °C
As of 3:50 AM on Saturday 25 Oct 2014 (Local Time) from KTIP Reporting Station
Clear Clear  
Wind Chill: 56°   Ceiling: Unl
Heat Index: 56°   Visibility: 7mi
Dew Point: 53°   Wind: 7mph
Humidity: 89%   Direction: 230°SW
Pressure: 29.92"   Gusts: NA
Location:  40.6°N, 88.04°W
Report Text: KTIP 250850Z AUTO 23006KT 7SM CLR 13/11 A2992 RMK AO2 T01320114
Loading
Personal Weather Stations






























Interactive Weather Map
Tropical Storm Tracking
New forecast layout! Learn more

10-Day Weather Forecast

Advertisements
Track Severe Weather on mobile